createdAt,value
2019-03-22T00:00:37.458Z,20.80
2019-03-22T00:03:09.663Z,20.80
2019-03-22T00:05:40.186Z,20.70
2019-03-22T00:08:10.715Z,20.70
2019-03-22T00:10:41.258Z,20.70
2019-03-22T00:13:11.820Z,20.70
2019-03-22T00:15:42.390Z,20.60
2019-03-22T00:18:12.947Z,20.60
2019-03-22T00:20:43.445Z,20.60
2019-03-22T00:23:14.070Z,20.70
2019-03-22T00:25:44.646Z,20.70
2019-03-22T00:28:15.185Z,20.70
2019-03-22T00:30:45.681Z,20.80
2019-03-22T00:33:16.241Z,20.90
2019-03-22T00:35:46.745Z,21.00
2019-03-22T00:38:17.255Z,21.00
2019-03-22T00:40:47.758Z,21.10
2019-03-22T00:43:18.381Z,21.10
2019-03-22T00:45:48.882Z,21.20
2019-03-22T00:48:19.381Z,21.20
2019-03-22T00:50:49.950Z,21.30
2019-03-22T00:53:20.537Z,21.30
2019-03-22T00:55:51.134Z,21.30
2019-03-22T00:58:21.657Z,21.40
2019-03-22T01:00:52.498Z,21.40
2019-03-22T01:03:24.250Z,21.40
2019-03-22T01:05:54.751Z,21.50
2019-03-22T01:08:25.302Z,21.50
2019-03-22T01:10:55.773Z,21.50
2019-03-22T01:13:27.413Z,21.50
2019-03-22T01:15:57.909Z,21.50
2019-03-22T01:18:28.445Z,21.40
2019-03-22T01:21:00.022Z,21.40
2019-03-22T01:23:30.484Z,21.40
2019-03-22T01:26:00.956Z,21.40
2019-03-22T01:28:31.422Z,21.40
2019-03-22T01:31:01.892Z,21.30
2019-03-22T01:33:32.414Z,21.30
2019-03-22T01:36:02.891Z,21.30
2019-03-22T01:38:33.397Z,21.30
2019-03-22T01:41:03.871Z,21.20
2019-03-22T01:43:34.429Z,21.20
2019-03-22T01:46:04.909Z,21.20
2019-03-22T01:48:35.142Z,21.10
2019-03-22T01:51:05.425Z,21.10
2019-03-22T01:53:35.750Z,21.10
2019-03-22T01:56:06.103Z,21.00
2019-03-22T01:58:36.430Z,21.00
2019-03-22T02:01:06.648Z,21.00
2019-03-22T02:03:36.952Z,21.00
2019-03-22T02:06:07.253Z,20.90
2019-03-22T02:08:37.620Z,20.90
2019-03-22T02:11:07.845Z,20.90
2019-03-22T02:13:38.141Z,20.90
2019-03-22T02:16:08.494Z,20.90
2019-03-22T02:18:38.869Z,20.80
2019-03-22T02:21:09.216Z,20.80
2019-03-22T02:23:39.506Z,20.80
2019-03-22T02:26:09.877Z,20.80
2019-03-22T02:28:40.240Z,20.70
2019-03-22T02:31:10.563Z,20.70
2019-03-22T02:33:40.826Z,20.70
2019-03-22T02:36:11.153Z,20.70
2019-03-22T02:38:41.500Z,20.70
2019-03-22T02:41:11.944Z,20.60
2019-03-22T02:43:42.302Z,20.60
2019-03-22T02:46:12.670Z,20.60
2019-03-22T02:48:43.040Z,20.60
2019-03-22T02:51:13.374Z,20.60
2019-03-22T02:53:43.602Z,20.60
2019-03-22T02:56:14.179Z,20.60
2019-03-22T02:58:44.608Z,20.60
2019-03-22T03:01:14.970Z,20.60
2019-03-22T03:03:45.267Z,20.70
2019-03-22T03:06:15.566Z,20.80
2019-03-22T03:08:45.973Z,20.80
2019-03-22T03:11:16.346Z,20.90
2019-03-22T03:13:46.655Z,21.00
2019-03-22T03:16:16.869Z,21.00
2019-03-22T03:18:47.102Z,21.10
2019-03-22T03:21:17.410Z,21.20
2019-03-22T03:23:47.714Z,21.20
2019-03-22T03:26:18.155Z,21.20
2019-03-22T03:28:48.519Z,21.30
2019-03-22T03:31:19.830Z,21.30
2019-03-22T03:33:50.270Z,21.30
2019-03-22T03:36:21.599Z,21.30
2019-03-22T03:38:52.114Z,21.40
2019-03-22T03:41:22.333Z,21.40
2019-03-22T03:43:52.709Z,21.40
2019-03-22T03:46:23.170Z,21.40
2019-03-22T03:48:53.598Z,21.40
2019-03-22T03:51:23.898Z,21.40
2019-03-22T03:53:54.207Z,21.40
2019-03-22T03:56:24.565Z,21.40
2019-03-22T03:58:54.906Z,21.30
2019-03-22T04:01:26.338Z,21.40
2019-03-22T04:03:56.665Z,21.30
2019-03-22T04:06:27.034Z,21.30
2019-03-22T04:08:57.263Z,21.30
2019-03-22T04:11:27.662Z,21.30
2019-03-22T04:13:58.045Z,21.20
2019-03-22T04:16:28.626Z,21.20
2019-03-22T04:18:59.063Z,21.20
2019-03-22T04:21:29.427Z,21.20
2019-03-22T04:23:59.799Z,21.10
2019-03-22T04:26:30.019Z,21.10
2019-03-22T04:29:07.239Z,21.10
2019-03-22T04:31:32.353Z,21.00
2019-03-22T04:34:02.678Z,21.00
2019-03-22T04:36:33.110Z,21.00
2019-03-22T04:39:04.487Z,21.00
2019-03-22T04:41:34.705Z,20.90
2019-03-22T04:44:04.926Z,20.90
2019-03-22T04:46:35.241Z,20.90
2019-03-22T04:49:05.488Z,20.90
2019-03-22T04:51:35.856Z,20.80
2019-03-22T04:54:06.077Z,20.80
2019-03-22T04:56:36.986Z,20.80
2019-03-22T04:59:18.336Z,20.80
2019-03-22T05:01:39.563Z,20.70
2019-03-22T05:04:09.860Z,20.70
2019-03-22T05:06:40.162Z,20.70
2019-03-22T05:09:11.322Z,20.70
2019-03-22T05:11:42.633Z,20.70
2019-03-22T05:14:12.973Z,20.70
2019-03-22T05:16:43.201Z,20.60
2019-03-22T05:19:13.506Z,20.60
2019-03-22T05:21:43.958Z,20.60
2019-03-22T05:24:14.186Z,20.60
2019-03-22T05:26:44.497Z,20.60
2019-03-22T05:29:14.861Z,20.60
2019-03-22T05:32:07.491Z,20.60
2019-03-22T05:34:38.918Z,20.60
2019-03-22T05:37:09.207Z,20.70
2019-03-22T05:39:39.515Z,20.70
2019-03-22T05:42:09.805Z,20.80
2019-03-22T05:44:40.094Z,20.90
2019-03-22T05:47:10.384Z,21.00
2019-03-22T05:49:40.781Z,21.00
2019-03-22T05:52:11.178Z,21.10
2019-03-22T05:54:41.550Z,21.10
2019-03-22T05:57:13.514Z,21.20
2019-03-22T05:59:44.094Z,21.20
2019-03-22T06:02:14.383Z,21.30
2019-03-22T06:04:44.610Z,21.30
2019-03-22T06:07:14.862Z,21.30
2019-03-22T06:09:45.144Z,21.40
2019-03-22T06:12:15.441Z,21.30
2019-03-22T06:14:45.936Z,21.40
2019-03-22T06:17:16.297Z,21.40
2019-03-22T06:19:46.506Z,21.40
2019-03-22T06:22:16.735Z,21.40
2019-03-22T06:24:47.097Z,21.40
2019-03-22T06:27:17.585Z,21.40
2019-03-22T06:29:54.280Z,21.30
2019-03-22T06:32:19.895Z,21.30
2019-03-22T06:34:50.141Z,21.30
2019-03-22T06:37:20.450Z,21.30
2019-03-22T06:39:50.771Z,21.30
2019-03-22T06:42:21.145Z,21.30
2019-03-22T06:44:51.465Z,21.30
2019-03-22T06:47:21.906Z,21.30
2019-03-22T06:49:52.217Z,21.20
2019-03-22T06:52:22.491Z,21.20
2019-03-22T06:54:52.873Z,21.20
2019-03-22T06:57:23.202Z,21.20
2019-03-22T07:00:05.540Z,21.20
2019-03-22T07:02:25.657Z,21.20
2019-03-22T07:04:56.198Z,21.20
2019-03-22T07:07:26.579Z,21.10
2019-03-22T07:09:56.920Z,21.20
2019-03-22T07:12:27.410Z,21.10
2019-03-22T07:14:57.717Z,21.10
2019-03-22T07:17:28.070Z,21.10
2019-03-22T07:19:58.462Z,21.10
2019-03-22T07:22:28.764Z,21.10
2019-03-22T07:24:59.139Z,21.10
2019-03-22T07:27:29.562Z,21.00
2019-03-22T07:29:59.857Z,21.00
2019-03-22T07:32:31.450Z,21.00
2019-03-22T07:35:01.682Z,21.00
2019-03-22T07:37:32.510Z,20.90
2019-03-22T07:40:02.818Z,20.90
2019-03-22T07:42:33.073Z,20.90
2019-03-22T07:45:03.480Z,20.90
2019-03-22T07:47:33.868Z,20.90
2019-03-22T07:50:04.586Z,20.80
2019-03-22T07:52:35.950Z,20.80
2019-03-22T07:55:06.903Z,20.80
2019-03-22T07:57:37.142Z,20.80
2019-03-22T08:00:07.750Z,20.80
2019-03-22T08:02:38.024Z,20.80
2019-03-22T08:05:08.414Z,20.70
2019-03-22T08:07:38.859Z,20.70
2019-03-22T08:10:09.447Z,20.70
2019-03-22T08:12:40.189Z,20.70
2019-03-22T08:15:10.572Z,20.70
2019-03-22T08:17:41.038Z,20.70
2019-03-22T08:20:11.446Z,20.70
2019-03-22T08:22:41.793Z,20.70
2019-03-22T08:25:12.173Z,20.70
2019-03-22T08:27:42.562Z,20.60
2019-03-22T08:30:12.899Z,20.60
2019-03-22T08:32:43.723Z,20.60
2019-03-22T08:35:14.067Z,20.60
2019-03-22T08:37:52.592Z,20.60
2019-03-22T08:40:16.313Z,20.60
2019-03-22T08:42:46.629Z,20.60
2019-03-22T08:45:17.040Z,20.60
2019-03-22T08:47:47.354Z,20.60
2019-03-22T08:50:17.793Z,20.60
2019-03-22T08:52:48.180Z,20.60
2019-03-22T08:55:18.608Z,20.50
2019-03-22T08:57:48.952Z,20.50
2019-03-22T09:00:19.341Z,20.50
2019-03-22T09:02:49.917Z,20.50
2019-03-22T09:05:20.329Z,20.50
2019-03-22T09:07:50.744Z,20.50
2019-03-22T09:10:21.057Z,20.50
2019-03-22T09:12:51.434Z,20.50
2019-03-22T09:15:21.838Z,20.50
2019-03-22T09:17:52.204Z,20.50
2019-03-22T09:20:22.506Z,20.50
2019-03-22T09:22:52.998Z,20.50
2019-03-22T09:25:23.454Z,20.50
2019-03-22T09:27:53.784Z,20.50
2019-03-22T09:30:24.360Z,20.50
2019-03-22T09:32:54.634Z,20.50
2019-03-22T09:35:25.041Z,20.50
2019-03-22T09:37:55.354Z,20.50
2019-03-22T09:40:25.685Z,20.50
2019-03-22T09:42:56.244Z,20.50
2019-03-22T09:45:26.570Z,20.50
2019-03-22T09:47:56.988Z,20.50
2019-03-22T09:50:27.345Z,20.50
2019-03-22T09:52:57.845Z,20.50
2019-03-22T09:55:28.288Z,20.50
2019-03-22T09:57:58.595Z,20.50
2019-03-22T10:00:33.697Z,20.50
2019-03-22T10:03:04.205Z,20.50
2019-03-22T10:05:34.614Z,20.50
2019-03-22T10:08:05.179Z,20.60
2019-03-22T10:10:35.560Z,20.60
2019-03-22T10:13:05.913Z,20.70
2019-03-22T10:15:36.334Z,20.70
2019-03-22T10:18:07.077Z,20.70
2019-03-22T10:20:37.595Z,20.70
2019-03-22T10:23:07.975Z,20.70
2019-03-22T10:25:38.378Z,20.70
2019-03-22T10:28:08.678Z,20.70
2019-03-22T10:30:39.140Z,20.70
2019-03-22T10:33:21.742Z,20.70
2019-03-22T10:35:41.954Z,20.70
2019-03-22T10:38:16.441Z,20.70
2019-03-22T10:40:44.389Z,20.70
2019-03-22T10:43:14.686Z,20.70
2019-03-22T10:45:45.154Z,20.70
2019-03-22T10:48:15.606Z,20.70
2019-03-22T10:50:45.974Z,20.70
2019-03-22T10:53:16.366Z,20.70
2019-03-22T10:55:46.741Z,20.60
2019-03-22T10:58:21.255Z,20.60
2019-03-22T11:00:49.207Z,20.60
2019-03-22T11:03:19.581Z,20.60
2019-03-22T11:05:49.997Z,20.60
2019-03-22T11:08:20.445Z,20.60
2019-03-22T11:10:50.811Z,20.60
2019-03-22T11:13:21.049Z,20.60
2019-03-22T11:15:51.496Z,20.60
2019-03-22T11:18:21.744Z,20.60
2019-03-22T11:20:52.120Z,20.60
2019-03-22T11:23:22.502Z,20.60
2019-03-22T11:25:52.903Z,20.60
2019-03-22T11:28:23.207Z,20.60
2019-03-22T11:30:53.639Z,20.50
2019-03-22T11:33:24.014Z,20.50
2019-03-22T11:35:54.258Z,20.50
2019-03-22T11:38:24.634Z,20.50
2019-03-22T11:40:54.957Z,20.50
2019-03-22T11:43:25.670Z,20.50
2019-03-22T11:45:56.177Z,20.50
2019-03-22T11:48:26.481Z,20.50
2019-03-22T11:50:56.721Z,20.50
2019-03-22T11:53:27.034Z,20.50
2019-03-22T11:55:57.366Z,20.50
2019-03-22T11:58:27.616Z,20.50
2019-03-22T12:00:57.993Z,20.50
2019-03-22T12:03:28.398Z,20.60
2019-03-22T12:05:58.758Z,20.70
2019-03-22T12:08:29.176Z,20.80
2019-03-22T12:10:59.494Z,20.90
2019-03-22T12:13:29.809Z,21.00
2019-03-22T12:16:00.069Z,21.20
2019-03-22T12:18:30.297Z,21.30
2019-03-22T12:21:00.711Z,21.40
2019-03-22T12:23:31.025Z,21.50
2019-03-22T12:26:01.326Z,21.60
2019-03-22T12:28:31.674Z,21.70
2019-03-22T12:31:02.317Z,21.80
2019-03-22T12:33:33.819Z,21.90
2019-03-22T12:36:05.194Z,22.00
2019-03-22T12:38:35.426Z,22.10
2019-03-22T12:41:05.756Z,22.10
2019-03-22T12:43:36.057Z,22.10
2019-03-22T12:46:06.369Z,22.10
2019-03-22T12:48:36.816Z,22.10
2019-03-22T12:51:07.134Z,22.10
2019-03-22T12:53:37.567Z,22.10
2019-03-22T12:56:07.947Z,22.10
2019-03-22T12:58:38.430Z,22.00
2019-03-22T13:01:10.291Z,22.00
2019-03-22T13:03:40.627Z,22.00
2019-03-22T13:06:10.849Z,22.00
2019-03-22T13:08:41.072Z,21.90
2019-03-22T13:11:11.398Z,21.90
2019-03-22T13:13:41.686Z,21.90
2019-03-22T13:16:12.070Z,21.80
2019-03-22T13:18:49.812Z,21.80
2019-03-22T13:21:14.533Z,21.80
2019-03-22T13:23:44.906Z,21.80
2019-03-22T13:26:15.299Z,21.70
2019-03-22T13:28:45.668Z,21.70
2019-03-22T13:31:15.961Z,21.70
2019-03-22T13:33:46.427Z,21.70
2019-03-22T13:36:17.153Z,21.60
2019-03-22T13:38:47.649Z,21.60
2019-03-22T13:41:18.863Z,21.60
2019-03-22T13:43:49.161Z,21.60
2019-03-22T13:46:19.606Z,21.50
2019-03-22T13:48:49.901Z,21.50
2019-03-22T13:51:20.276Z,21.50
2019-03-22T13:53:50.721Z,21.50
2019-03-22T13:56:21.153Z,21.50
2019-03-22T13:58:51.615Z,21.40
2019-03-22T14:01:21.899Z,21.50
2019-03-22T14:03:52.147Z,21.40
2019-03-22T14:06:22.625Z,21.40
2019-03-22T14:08:53.025Z,21.40
2019-03-22T14:11:24.386Z,21.30
2019-03-22T14:13:54.752Z,21.30
2019-03-22T14:16:25.531Z,21.30
2019-03-22T14:18:55.826Z,21.30
2019-03-22T14:21:26.283Z,21.20
2019-03-22T14:23:56.526Z,21.20
2019-03-22T14:26:26.826Z,21.20
2019-03-22T14:28:57.197Z,21.20
2019-03-22T14:31:27.580Z,21.20
2019-03-22T14:33:58.178Z,21.20
2019-03-22T14:36:28.624Z,21.10
2019-03-22T14:38:58.856Z,21.20
2019-03-22T14:41:29.175Z,21.20
2019-03-22T14:43:59.537Z,21.20
2019-03-22T14:46:30.013Z,21.30
2019-03-22T14:49:00.327Z,21.30
2019-03-22T14:51:30.549Z,21.30
2019-03-22T14:54:00.925Z,21.30
2019-03-22T14:56:31.326Z,21.40
2019-03-22T14:59:01.647Z,21.30
2019-03-22T15:01:31.954Z,21.40
2019-03-22T15:04:02.315Z,21.40
2019-03-22T15:06:32.541Z,21.40
2019-03-22T15:09:04.395Z,21.40
2019-03-22T15:11:34.850Z,21.40
2019-03-22T15:14:16.958Z,21.30
2019-03-22T15:17:09.149Z,21.30
2019-03-22T15:19:55.286Z,21.30
2019-03-22T15:22:53.625Z,21.30
2019-03-22T15:26:01.086Z,21.30
2019-03-22T15:28:59.361Z,21.20
2019-03-22T15:31:48.694Z,21.20
2019-03-22T15:34:40.639Z,21.20
2019-03-22T15:37:32.009Z,21.20
2019-03-22T15:40:04.459Z,21.20
2019-03-22T15:42:35.311Z,21.10
2019-03-22T15:45:07.281Z,21.10
2019-03-22T15:47:37.681Z,21.10
2019-03-22T15:50:09.178Z,21.10
2019-03-22T15:52:39.398Z,21.00
2019-03-22T15:55:10.758Z,21.00
2019-03-22T15:57:40.977Z,21.00
2019-03-22T16:00:14.070Z,21.00
2019-03-22T16:02:44.441Z,20.90
2019-03-22T16:05:14.779Z,20.90
2019-03-22T16:07:44.997Z,20.90
2019-03-22T16:10:15.306Z,20.90
2019-03-22T16:12:45.525Z,20.90
2019-03-22T16:15:15.853Z,20.80
2019-03-22T16:17:47.062Z,20.80
2019-03-22T16:20:17.378Z,20.80
2019-03-22T16:22:47.746Z,20.80
2019-03-22T16:25:18.114Z,20.80
2019-03-22T16:27:48.521Z,20.80
2019-03-22T16:30:18.861Z,20.80
2019-03-22T16:32:49.305Z,20.70
2019-03-22T16:35:19.792Z,20.70
2019-03-22T16:37:50.162Z,20.80
2019-03-22T16:40:24.494Z,20.80
2019-03-22T16:42:52.597Z,20.80
2019-03-22T16:45:37.114Z,20.90
2019-03-22T16:48:07.406Z,21.00
2019-03-22T16:50:37.774Z,21.10
2019-03-22T16:53:08.086Z,21.10
2019-03-22T16:55:38.454Z,21.20
2019-03-22T16:58:08.758Z,21.30
2019-03-22T17:00:39.234Z,21.30
2019-03-22T17:03:09.473Z,21.30
2019-03-22T17:05:39.838Z,21.40
2019-03-22T17:08:10.145Z,21.40
2019-03-22T17:10:40.442Z,21.40
2019-03-22T17:13:10.817Z,21.50
2019-03-22T17:15:41.133Z,21.50
2019-03-22T17:18:11.453Z,21.50
2019-03-22T17:20:41.668Z,21.60
2019-03-22T17:23:11.973Z,21.60
2019-03-22T17:25:42.282Z,21.60
2019-03-22T17:28:12.829Z,21.60
2019-03-22T17:30:43.249Z,21.60
2019-03-22T17:33:13.651Z,21.60
2019-03-22T17:35:44.122Z,21.60
2019-03-22T17:38:14.504Z,21.60
2019-03-22T17:40:44.886Z,21.60
2019-03-22T17:43:15.266Z,21.50
2019-03-22T17:45:45.489Z,21.50
2019-03-22T17:48:15.721Z,21.50
2019-03-22T17:50:46.135Z,21.60
2019-03-22T17:53:16.526Z,21.60
2019-03-22T17:55:46.852Z,21.60
2019-03-22T17:58:17.234Z,21.60
2019-03-22T18:00:47.956Z,21.60
2019-03-22T18:03:18.504Z,21.60
2019-03-22T18:05:48.820Z,21.60
2019-03-22T18:08:19.194Z,21.60
2019-03-22T18:10:49.621Z,21.60
2019-03-22T18:13:20.083Z,21.60
2019-03-22T18:15:50.558Z,21.60
2019-03-22T18:18:20.905Z,21.60
2019-03-22T18:20:51.257Z,21.60
2019-03-22T18:23:21.633Z,21.60
2019-03-22T18:25:51.992Z,21.60
2019-03-22T18:28:22.509Z,21.60
2019-03-22T18:30:54.364Z,21.60
2019-03-22T18:33:24.680Z,21.60
2019-03-22T18:35:54.985Z,21.60
2019-03-22T18:38:25.376Z,21.60
2019-03-22T18:40:55.762Z,21.60
2019-03-22T18:43:25.991Z,21.60
2019-03-22T18:45:58.519Z,21.60
2019-03-22T18:48:28.913Z,21.60
2019-03-22T18:50:59.295Z,21.60
2019-03-22T18:53:29.629Z,21.60
2019-03-22T18:55:59.886Z,21.60
2019-03-22T18:58:30.320Z,21.70
2019-03-22T19:01:00.626Z,21.70
2019-03-22T19:03:31.060Z,21.80
2019-03-22T19:06:01.453Z,21.90
2019-03-22T19:08:31.988Z,21.90
2019-03-22T19:11:02.450Z,22.00
2019-03-22T19:13:32.684Z,22.00
2019-03-22T19:16:03.153Z,22.10
2019-03-22T19:18:33.734Z,22.20
2019-03-22T19:21:05.186Z,22.20
2019-03-22T19:23:35.631Z,22.20
2019-03-22T19:26:06.039Z,22.30
2019-03-22T19:28:36.390Z,22.30
2019-03-22T19:31:06.724Z,22.30
2019-03-22T19:33:37.110Z,22.30
2019-03-22T19:36:07.550Z,22.30
2019-03-22T19:38:37.930Z,22.30
2019-03-22T19:41:08.203Z,22.30
2019-03-22T19:43:39.645Z,22.30
2019-03-22T19:46:11.031Z,22.20
2019-03-22T19:48:41.280Z,22.20
2019-03-22T19:51:11.526Z,22.20
2019-03-22T19:53:41.763Z,22.10
2019-03-22T19:56:12.077Z,22.10
2019-03-22T19:58:42.410Z,22.10
2019-03-22T20:01:12.718Z,22.10
2019-03-22T20:03:43.036Z,22.00
2019-03-22T20:06:13.430Z,22.00
2019-03-22T20:08:43.730Z,22.00
2019-03-22T20:11:13.958Z,22.00
2019-03-22T20:13:44.337Z,21.90
2019-03-22T20:16:14.645Z,21.90
2019-03-22T20:18:45.011Z,21.90
2019-03-22T20:21:15.618Z,21.80
2019-03-22T20:23:53.486Z,21.80
2019-03-22T20:26:19.084Z,21.80
2019-03-22T20:28:49.623Z,21.80
2019-03-22T20:31:20.002Z,21.70
2019-03-22T20:33:50.321Z,21.70
2019-03-22T20:36:20.617Z,21.70
2019-03-22T20:38:50.974Z,21.70
2019-03-22T20:41:21.277Z,21.70
2019-03-22T20:43:51.654Z,21.60
2019-03-22T20:46:22.148Z,21.60
2019-03-22T20:48:52.642Z,21.50
2019-03-22T20:51:22.970Z,21.50
2019-03-22T20:53:53.346Z,21.50
2019-03-22T20:56:23.761Z,21.50
2019-03-22T20:58:54.135Z,21.40
2019-03-22T21:01:24.466Z,21.40
2019-03-22T21:03:54.790Z,21.40
2019-03-22T21:06:25.387Z,21.40
2019-03-22T21:08:55.822Z,21.40
2019-03-22T21:11:26.286Z,21.40
2019-03-22T21:13:56.679Z,21.40
2019-03-22T21:16:27.074Z,21.50
2019-03-22T21:18:57.402Z,21.50
2019-03-22T21:21:35.961Z,21.50
2019-03-22T21:23:59.798Z,21.40
2019-03-22T21:26:30.202Z,21.40
2019-03-22T21:29:00.514Z,21.40
2019-03-22T21:31:30.826Z,21.30
2019-03-22T21:34:01.255Z,21.40
2019-03-22T21:36:32.594Z,21.30
2019-03-22T21:39:04.007Z,21.30
2019-03-22T21:41:34.471Z,21.30
2019-03-22T21:44:04.882Z,21.20
2019-03-22T21:46:35.301Z,21.20
2019-03-22T21:49:05.862Z,21.20
2019-03-22T21:51:36.122Z,21.20
2019-03-22T21:54:06.428Z,21.10
2019-03-22T21:56:36.904Z,21.10
2019-03-22T21:59:07.289Z,21.10
2019-03-22T22:01:37.595Z,21.00
2019-03-22T22:04:07.981Z,21.00
2019-03-22T22:06:38.368Z,21.00
2019-03-22T22:09:08.657Z,21.00
2019-03-22T22:11:38.986Z,20.90
2019-03-22T22:14:09.300Z,20.90
2019-03-22T22:16:39.636Z,20.90
2019-03-22T22:19:09.954Z,20.90
2019-03-22T22:21:40.288Z,20.80
2019-03-22T22:24:10.584Z,20.80
2019-03-22T22:26:41.006Z,20.80
2019-03-22T22:29:11.497Z,20.80
2019-03-22T22:31:41.899Z,20.70
2019-03-22T22:34:12.280Z,20.70
2019-03-22T22:36:42.593Z,20.70
2019-03-22T22:39:12.977Z,20.70
2019-03-22T22:41:43.306Z,20.70
2019-03-22T22:44:14.733Z,20.60
2019-03-22T22:46:45.107Z,20.60
2019-03-22T22:49:15.482Z,20.60
2019-03-22T22:51:45.795Z,20.60
2019-03-22T22:54:16.109Z,20.60
2019-03-22T22:56:46.405Z,20.50
2019-03-22T22:59:18.774Z,20.50
2019-03-22T23:01:48.887Z,20.50
2019-03-22T23:04:19.361Z,20.50
2019-03-22T23:06:49.873Z,20.50
2019-03-22T23:09:20.361Z,20.40
2019-03-22T23:11:50.822Z,20.40
2019-03-22T23:14:21.166Z,20.40
2019-03-22T23:16:51.480Z,20.40
2019-03-22T23:19:21.789Z,20.40
2019-03-22T23:21:52.057Z,20.40
2019-03-22T23:24:22.293Z,20.40
2019-03-22T23:26:52.713Z,20.40
2019-03-22T23:29:23.152Z,20.40
2019-03-22T23:31:53.509Z,20.40
2019-03-22T23:34:23.828Z,20.40
2019-03-22T23:36:54.090Z,20.50
2019-03-22T23:39:24.326Z,20.60
2019-03-22T23:41:54.680Z,20.70
2019-03-22T23:44:24.989Z,20.70
2019-03-22T23:46:55.499Z,20.80
2019-03-22T23:49:25.790Z,20.90
2019-03-22T23:51:56.121Z,20.90
2019-03-22T23:54:26.493Z,21.00
2019-03-22T23:56:56.734Z,21.00
2019-03-22T23:59:27.875Z,21.00
